Time;durP1;ratioP1;P1;durP2;ratioP2;P2;SDS_P1;SDS_P2;PMS_P1;PMS_P2;Temp;Humidity;BMP_temperature;BMP_pressure;BME280_temperature;BME280_humidity;BME280_pressure;Samples;Min_cycle;Max_cycle;Signal;HPM_P1;HPM_P2
2023/08/23 00:01:55;;;;;;;6.35;3.30;;;16.50;81.90;;;;;;4951876;28;20930;-75
2023/08/23 00:04:20;;;;;;;6.13;3.38;;;16.50;79.80;;;;;;4952137;28;20492;-75
2023/08/23 00:06:46;;;;;;;5.40;3.10;;;16.50;79.00;;;;;;4954934;28;20470;-74
2023/08/23 00:09:12;;;;;;;6.30;3.23;;;16.60;79.90;;;;;;4955004;29;20883;-75
2023/08/23 00:11:38;;;;;;;4.55;2.60;;;16.50;80.50;;;;;;4956389;28;20386;-74
2023/08/23 00:14:03;;;;;;;6.07;3.10;;;16.40;81.30;;;;;;4955682;29;20381;-75
2023/08/23 00:16:29;;;;;;;5.00;3.30;;;16.40;82.30;;;;;;4955743;28;20405;-74
2023/08/23 00:18:55;;;;;;;4.97;2.70;;;16.30;83.30;;;;;;4955547;28;20415;-75
2023/08/23 00:21:20;;;;;;;6.18;3.30;;;16.30;83.50;;;;;;4955440;29;20394;-74
2023/08/23 00:23:46;;;;;;;6.27;3.00;;;16.40;82.60;;;;;;4955372;28;20887;-74
2023/08/23 00:26:11;;;;;;;6.83;3.17;;;16.30;82.70;;;;;;4955313;28;20464;-74
2023/08/23 00:28:38;;;;;;;7.80;3.33;;;16.30;83.30;;;;;;4955447;29;20791;-75
2023/08/23 00:31:04;;;;;;;7.45;3.38;;;16.30;84.50;;;;;;4955558;28;20775;-73
2023/08/23 00:33:30;;;;;;;5.15;3.17;;;16.30;85.80;;;;;;4955286;29;20411;-73
2023/08/23 00:35:55;;;;;;;4.30;3.30;;;16.40;84.80;;;;;;4937595;29;20394;-74
2023/08/23 00:38:21;;;;;;;6.60;3.30;;;16.40;83.90;;;;;;4955323;28;20425;-74
2023/08/23 00:40:46;;;;;;;8.80;3.80;;;16.30;84.90;;;;;;4955442;28;20397;-73
2023/08/23 00:43:12;;;;;;;6.78;3.72;;;16.30;86.10;;;;;;4955205;29;20390;-74
2023/08/23 00:45:39;;;;;;;6.40;3.60;;;16.30;86.30;;;;;;4955426;29;20418;-74
2023/08/23 00:48:06;;;;;;;10.35;3.33;;;16.20;87.20;;;;;;4955524;28;20917;-74
2023/08/23 00:50:32;;;;;;;3.92;3.10;;;16.20;87.00;;;;;;4954810;29;20405;-74
2023/08/23 00:52:58;;;;;;;5.35;3.53;;;16.20;86.90;;;;;;4956613;29;20453;-74
2023/08/23 00:55:24;;;;;;;10.07;3.60;;;16.10;88.40;;;;;;4956379;29;20856;-74
2023/08/23 00:57:51;;;;;;;6.77;3.60;;;16.20;88.30;;;;;;4956490;29;20707;-74
2023/08/23 01:00:18;;;;;;;5.88;3.58;;;16.30;84.40;;;;;;4956568;28;20774;-74
2023/08/23 01:02:44;;;;;;;8.10;3.90;;;16.20;85.60;;;;;;4956569;28;20396;-74
2023/08/23 01:08:03;;;;;;;9.63;3.60;;;16.10;89.20;;;;;;5034315;28;20481;-74
2023/08/23 01:10:41;;;;;;;10.63;4.00;;;16.10;90.40;;;;;;4998948;28;20406;-74
2023/08/23 01:13:38;;;;;;;7.32;3.40;;;16.10;89.70;;;;;;5037174;28;20410;-74
2023/08/23 01:16:07;;;;;;;5.00;4.00;;;16.00;90.10;;;;;;5037093;28;20470;-75
2023/08/23 01:18:32;;;;;;;9.80;3.63;;;16.10;90.70;;;;;;5035839;28;20399;-74
2023/08/23 01:21:02;;;;;;;13.38;4.22;;;16.00;92.60;;;;;;5031966;28;20375;-75
2023/08/23 01:23:28;;;;;;;6.97;4.00;;;16.10;90.90;;;;;;5032185;28;20387;-75
2023/08/23 01:25:54;;;;;;;8.82;4.60;;;16.10;90.20;;;;;;5031950;28;20406;-74
2023/08/23 01:28:20;;;;;;;7.90;4.32;;;16.20;90.20;;;;;;5032075;28;20898;-75
2023/08/23 01:30:47;;;;;;;9.57;4.43;;;16.20;88.40;;;;;;5031874;28;20382;-74
2023/08/23 01:33:33;;;;;;;9.18;4.05;;;16.10;89.10;;;;;;5030946;28;20690;-75
2023/08/23 01:36:15;;;;;;;10.95;4.57;;;16.00;90.30;;;;;;5032173;28;20740;-74
2023/08/23 01:38:42;;;;;;;6.55;4.47;;;16.00;91.90;;;;;;5031880;28;20390;-74
2023/08/23 01:41:07;;;;;;;9.43;5.00;;;16.00;91.70;;;;;;5031714;28;20394;-74
2023/08/23 01:43:33;;;;;;;12.57;4.63;;;15.90;92.20;;;;;;5031851;28;20907;-75
2023/08/23 01:45:59;;;;;;;7.47;4.40;;;15.90;92.30;;;;;;5032530;28;20481;-75
2023/08/23 01:48:24;;;;;;;8.80;4.60;;;15.90;92.00;;;;;;5032469;28;20442;-75
2023/08/23 01:50:54;;;;;;;8.00;4.30;;;15.90;92.20;;;;;;5032078;28;20375;-73
2023/08/23 01:53:19;;;;;;;8.98;4.70;;;16.00;90.70;;;;;;5031589;28;20394;-75
2023/08/23 01:55:45;;;;;;;6.10;4.80;;;16.00;89.10;;;;;;5032682;28;20387;-75
2023/08/23 01:58:10;;;;;;;10.60;4.18;;;15.90;90.00;;;;;;5034644;28;20387;-74
2023/08/23 02:00:36;;;;;;;5.50;3.80;;;15.90;90.60;;;;;;5031871;28;20394;-74
2023/08/23 02:03:01;;;;;;;11.17;5.00;;;16.00;90.30;;;;;;5032060;28;20390;-77
2023/08/23 02:05:30;;;;;;;9.77;4.30;;;15.90;89.60;;;;;;5031164;28;20411;-75
2023/08/23 02:07:55;;;;;;;6.90;4.70;;;15.90;91.10;;;;;;5031953;28;20398;-76
2023/08/23 02:10:21;;;;;;;9.27;4.80;;;15.80;92.20;;;;;;5031632;28;20449;-76
2023/08/23 02:12:47;;;;;;;12.18;4.63;;;15.80;91.80;;;;;;5031107;28;20422;-76
2023/08/23 02:15:12;;;;;;;10.30;4.20;;;15.70;92.70;;;;;;5031511;28;20390;-75
2023/08/23 02:17:38;;;;;;;11.55;5.00;;;15.70;93.60;;;;;;5032434;28;20482;-76
2023/08/23 02:20:04;;;;;;;6.73;4.70;;;15.80;94.10;;;;;;5036185;28;20398;-74
2023/08/23 02:22:30;;;;;;;11.00;4.90;;;15.90;90.00;;;;;;5038533;28;20391;-75
2023/08/23 02:24:57;;;;;;;7.38;4.20;;;15.90;89.80;;;;;;5036757;28;20473;-74
2023/08/23 02:27:23;;;;;;;7.10;4.23;;;15.90;89.20;;;;;;5038720;28;20391;-76
2023/08/23 02:29:48;;;;;;;5.90;4.20;;;15.80;90.50;;;;;;5040749;28;20477;-76
2023/08/23 02:32:14;;;;;;;9.83;4.57;;;15.80;91.20;;;;;;5040120;28;20467;-73
2023/08/23 02:34:39;;;;;;;10.23;4.80;;;15.80;92.20;;;;;;5041101;28;20379;-74
2023/08/23 02:37:05;;;;;;;12.25;5.20;;;15.80;91.10;;;;;;5040216;28;20465;-75
2023/08/23 02:39:30;;;;;;;7.00;5.10;;;15.80;90.60;;;;;;5040838;28;20399;-75
2023/08/23 02:41:56;;;;;;;9.50;4.67;;;15.80;91.80;;;;;;5041094;28;20697;-76
2023/08/23 02:44:21;;;;;;;8.43;4.03;;;15.80;92.70;;;;;;5040071;28;20419;-76
2023/08/23 02:46:47;;;;;;;7.95;4.72;;;15.80;91.50;;;;;;5040500;28;20810;-75
2023/08/23 02:49:12;;;;;;;9.07;4.50;;;15.70;92.50;;;;;;5041672;28;20387;-76
2023/08/23 02:51:38;;;;;;;8.83;4.37;;;15.60;93.90;;;;;;5041866;28;20391;-76
2023/08/23 02:54:04;;;;;;;9.82;5.50;;;15.60;95.00;;;;;;5042333;28;20390;-75
2023/08/23 02:56:29;;;;;;;12.70;5.80;;;15.50;96.00;;;;;;5042355;28;20391;-75
2023/08/23 02:58:55;;;;;;;9.03;5.40;;;15.50;97.50;;;;;;5041823;28;20409;-75
2023/08/23 03:01:20;;;;;;;11.27;5.20;;;15.50;97.40;;;;;;5032189;28;20383;-75
2023/08/23 03:03:46;;;;;;;11.43;5.47;;;15.50;98.50;;;;;;5031793;28;20528;-75
2023/08/23 03:06:12;;;;;;;11.52;5.50;;;15.50;99.70;;;;;;5031416;28;20795;-75
2023/08/23 03:08:37;;;;;;;12.37;5.80;;;15.60;97.00;;;;;;5031165;28;20411;-75
2023/08/23 03:11:03;;;;;;;11.70;5.27;;;15.50;96.10;;;;;;5031207;28;20861;-75
2023/08/23 03:13:29;;;;;;;13.70;6.00;;;15.50;97.10;;;;;;5031073;28;20379;-75
2023/08/23 03:15:55;;;;;;;11.40;5.70;;;15.70;93.50;;;;;;5030406;28;20385;-75
2023/08/23 03:18:21;;;;;;;12.30;6.30;;;15.80;91.20;;;;;;5030702;28;20397;-75
2023/08/23 03:20:48;;;;;;;12.15;5.80;;;15.90;89.00;;;;;;5030419;28;20391;-75
2023/08/23 03:23:14;;;;;;;10.27;5.60;;;15.70;90.80;;;;;;5030248;28;20383;-75
2023/08/23 03:25:39;;;;;;;10.70;6.10;;;15.60;92.50;;;;;;5030135;28;20483;-75
2023/08/23 03:28:05;;;;;;;12.13;6.20;;;15.50;95.60;;;;;;5030300;28;20389;-75
2023/08/23 03:30:30;;;;;;;9.23;6.17;;;15.40;97.20;;;;;;5030311;28;20405;-75
2023/08/23 03:32:56;;;;;;;10.67;6.10;;;15.50;97.30;;;;;;5029962;28;20391;-75
2023/08/23 03:35:22;;;;;;;12.98;6.60;;;15.70;96.40;;;;;;5029015;28;20951;-75
2023/08/23 03:37:47;;;;;;;12.05;6.28;;;15.60;95.10;;;;;;5030474;28;20463;-75
2023/08/23 03:40:13;;;;;;;12.37;6.27;;;15.50;97.30;;;;;;5030867;28;20462;-75
2023/08/23 03:42:38;;;;;;;12.27;6.50;;;15.30;99.20;;;;;;5032661;28;20879;-74
2023/08/23 03:45:04;;;;;;;11.50;6.15;;;15.40;99.90;;;;;;5033981;28;20387;-75
2023/08/23 03:47:30;;;;;;;10.60;6.50;;;15.40;99.90;;;;;;5033173;28;20445;-76
2023/08/23 03:49:56;;;;;;;10.88;6.63;;;15.60;98.60;;;;;;5033922;28;20387;-76
2023/08/23 03:52:21;;;;;;;14.90;7.50;;;15.50;95.90;;;;;;5034351;28;20399;-76
2023/08/23 03:54:47;;;;;;;12.55;6.60;;;15.40;98.00;;;;;;5040465;28;20389;-75
2023/08/23 03:57:12;;;;;;;11.67;6.67;;;15.40;98.60;;;;;;5034438;28;20470;-75
2023/08/23 03:59:38;;;;;;;14.33;6.90;;;15.30;99.50;;;;;;5033197;28;20433;-76
2023/08/23 04:02:03;;;;;;;14.63;6.80;;;15.30;99.90;;;;;;5033452;28;20408;-75
2023/08/23 04:04:29;;;;;;;13.30;6.80;;;15.40;99.10;;;;;;5033776;28;20383;-76
2023/08/23 04:06:55;;;;;;;16.47;7.20;;;15.30;99.20;;;;;;5033335;28;20411;-76
2023/08/23 04:09:20;;;;;;;9.77;6.17;;;15.20;99.90;;;;;;5033700;28;20895;-76
2023/08/23 04:11:46;;;;;;;14.43;7.25;;;15.20;99.90;;;;;;5033633;28;20379;-76
2023/08/23 04:14:12;;;;;;;10.07;6.53;;;15.40;99.90;;;;;;5033707;28;20402;-74
2023/08/23 04:16:37;;;;;;;12.85;7.20;;;15.30;99.80;;;;;;5033379;28;20978;-75
2023/08/23 04:19:03;;;;;;;11.60;7.00;;;15.20;99.90;;;;;;5033533;28;20383;-76
2023/08/23 04:21:28;;;;;;;13.47;6.83;;;15.10;99.90;;;;;;5033145;28;20747;-76
2023/08/23 04:23:54;;;;;;;15.10;7.60;;;15.10;99.90;;;;;;5033312;28;20387;-76
2023/08/23 04:26:20;;;;;;;11.70;7.20;;;15.10;99.90;;;;;;5033736;28;20406;-75
2023/08/23 04:28:47;;;;;;;12.45;7.10;;;15.10;99.90;;;;;;5033196;28;20844;-75
2023/08/23 04:31:12;;;;;;;11.48;6.95;;;15.10;99.90;;;;;;5033005;28;20379;-76
2023/08/23 04:33:38;;;;;;;12.27;6.95;;;15.20;99.90;;;;;;5033164;28;20394;-76
2023/08/23 04:36:04;;;;;;;15.13;7.25;;;15.10;99.90;;;;;;5032940;28;20399;-75
2023/08/23 04:38:30;;;;;;;13.60;6.97;;;15.10;99.90;;;;;;5034538;28;20380;-72
2023/08/23 04:41:03;;;;;;;11.95;7.10;;;15.10;99.90;;;;;;5035873;28;20434;-76
2023/08/23 04:43:29;;;;;;;15.27;7.10;;;15.20;99.90;;;;;;5036382;28;20444;-76
2023/08/23 04:45:55;;;;;;;16.45;7.22;;;15.30;99.90;;;;;;5039667;28;20415;-76
2023/08/23 04:48:23;;;;;;;14.13;7.40;;;15.30;99.90;;;;;;5037609;28;20426;-76
2023/08/23 04:50:53;;;;;;;14.32;7.05;;;15.40;99.90;;;;;;5042235;28;20751;-75
2023/08/23 04:53:19;;;;;;;14.50;7.20;;;15.30;99.90;;;;;;5039581;28;20411;-76
2023/08/23 04:55:45;;;;;;;12.83;7.70;;;15.20;99.90;;;;;;5032389;28;20490;-75
2023/08/23 04:58:10;;;;;;;19.63;10.43;;;15.20;99.90;;;;;;5036285;28;20387;-74
2023/08/23 05:00:36;;;;;;;18.40;9.30;;;15.30;99.90;;;;;;5039612;28;20823;-76
2023/08/23 05:03:02;;;;;;;12.88;7.72;;;15.30;99.90;;;;;;5041239;28;20403;-75
2023/08/23 05:05:28;;;;;;;13.48;7.43;;;15.30;99.90;;;;;;5032804;28;20708;-76
2023/08/23 05:07:54;;;;;;;15.53;7.40;;;15.50;99.90;;;;;;5031194;28;20979;-76
2023/08/23 05:10:19;;;;;;;14.10;7.10;;;15.50;99.90;;;;;;5032045;28;20823;-74
2023/08/23 05:12:46;;;;;;;14.47;7.50;;;15.60;99.90;;;;;;5030307;28;20472;-73
2023/08/23 05:15:11;;;;;;;14.90;8.30;;;15.60;99.60;;;;;;5030549;28;20905;-74
2023/08/23 05:17:37;;;;;;;27.40;10.40;;;15.70;99.40;;;;;;5028190;28;20395;-75
2023/08/23 05:20:03;;;;;;;13.70;7.65;;;15.70;99.30;;;;;;5030124;28;20390;-75
2023/08/23 05:22:29;;;;;;;17.25;7.80;;;15.80;96.70;;;;;;5029285;28;20485;-75
2023/08/23 05:24:55;;;;;;;15.30;7.47;;;15.80;96.00;;;;;;5029473;28;20837;-74
2023/08/23 05:27:20;;;;;;;12.33;7.63;;;15.80;96.30;;;;;;5029437;28;20403;-74
2023/08/23 05:29:46;;;;;;;11.43;7.20;;;15.90;95.30;;;;;;5029600;28;20399;-75
2023/08/23 05:32:11;;;;;;;18.05;8.10;;;16.00;94.00;;;;;;5029111;28;20482;-75
2023/08/23 05:34:39;;;;;;;12.75;7.80;;;16.00;93.50;;;;;;5029494;28;20395;-76
2023/08/23 05:37:04;;;;;;;15.27;8.27;;;16.10;93.20;;;;;;5029363;28;20391;-74
2023/08/23 05:39:30;;;;;;;13.55;8.20;;;16.20;92.40;;;;;;5029685;28;21044;-75
2023/08/23 05:41:55;;;;;;;14.93;8.60;;;16.30;91.70;;;;;;5029383;28;20905;-74
2023/08/23 05:44:21;;;;;;;21.30;9.43;;;16.50;86.10;;;;;;5030617;28;20387;-76
2023/08/23 05:46:46;;;;;;;15.75;9.73;;;16.60;84.30;;;;;;5030243;28;20411;-75
2023/08/23 05:49:12;;;;;;;15.10;9.07;;;16.70;83.30;;;;;;5030562;28;20395;-75
2023/08/23 05:51:37;;;;;;;14.37;9.17;;;16.80;83.20;;;;;;5035327;28;20398;-76
2023/08/23 05:54:03;;;;;;;19.52;10.77;;;17.10;80.10;;;;;;5029567;28;20402;-76
2023/08/23 05:56:29;;;;;;;20.10;11.48;;;17.20;77.20;;;;;;5010524;28;20423;-75
2023/08/23 05:58:54;;;;;;;20.30;12.40;;;17.30;75.40;;;;;;5012407;28;20433;-75
2023/08/23 06:01:20;;;;;;;20.65;11.65;;;17.40;73.00;;;;;;5029192;28;20399;-74
2023/08/23 06:03:46;;;;;;;16.35;11.38;;;17.60;71.90;;;;;;5028971;28;20402;-74
2023/08/23 06:06:13;;;;;;;17.17;10.80;;;17.90;67.50;;;;;;5028942;28;20415;-75
2023/08/23 06:08:38;;;;;;;23.33;13.00;;;18.00;66.20;;;;;;5027941;28;20403;-74
2023/08/23 06:11:04;;;;;;;18.23;11.93;;;18.00;66.10;;;;;;5028803;28;20529;-74
2023/08/23 06:13:30;;;;;;;17.00;11.20;;;18.10;65.90;;;;;;5027276;28;20394;-75
2023/08/23 06:15:55;;;;;;;18.05;10.65;;;18.20;63.70;;;;;;5029045;28;20448;-75
2023/08/23 06:18:21;;;;;;;18.70;11.75;;;18.30;63.20;;;;;;5027430;28;20421;-75
2023/08/23 06:20:49;;;;;;;17.05;11.43;;;18.30;62.40;;;;;;5028242;28;20418;-74
2023/08/23 06:23:14;;;;;;;21.43;12.00;;;18.40;60.80;;;;;;5028851;28;21016;-75
2023/08/23 06:25:40;;;;;;;23.03;11.70;;;18.60;59.20;;;;;;5028093;28;20465;-75
2023/08/23 06:28:07;;;;;;;20.30;12.75;;;18.70;58.40;;;;;;5029870;28;20435;-76
2023/08/23 06:30:34;;;;;;;22.20;12.05;;;18.70;58.00;;;;;;5028705;28;20532;-73
2023/08/23 06:33:00;;;;;;;20.27;11.40;;;18.70;58.00;;;;;;5028632;28;20391;-75
2023/08/23 06:35:26;;;;;;;24.13;11.20;;;18.80;58.40;;;;;;5028798;28;20399;-75
2023/08/23 06:37:51;;;;;;;22.80;12.15;;;18.80;58.10;;;;;;5027729;28;20409;-75
2023/08/23 06:40:17;;;;;;;21.75;12.90;;;18.90;58.40;;;;;;5027737;28;20399;-75
2023/08/23 06:42:43;;;;;;;24.00;12.77;;;19.00;57.50;;;;;;5028525;28;20561;-74
2023/08/23 06:45:09;;;;;;;22.40;12.80;;;19.00;57.00;;;;;;5028902;28;20387;-75
2023/08/23 06:47:36;;;;;;;23.27;12.10;;;19.20;55.60;;;;;;5028869;28;20387;-74
2023/08/23 06:50:02;;;;;;;21.88;12.30;;;19.20;55.60;;;;;;5031668;28;20391;-75
2023/08/23 06:52:28;;;;;;;26.50;12.48;;;19.20;55.80;;;;;;5028780;28;20383;-75
2023/08/23 06:54:53;;;;;;;23.60;15.70;;;19.20;55.70;;;;;;5028899;28;20391;-75
2023/08/23 06:57:21;;;;;;;21.70;12.50;;;19.40;55.50;;;;;;5028478;28;20402;-75
2023/08/23 06:59:47;;;;;;;19.85;12.10;;;19.40;54.60;;;;;;5029211;28;20466;-75
2023/08/23 07:02:12;;;;;;;19.92;11.88;;;19.60;54.30;;;;;;5031248;28;20423;-76
2023/08/23 07:04:38;;;;;;;98.83;66.23;;;19.90;52.70;;;;;;5033586;28;20387;-76
2023/08/23 07:07:03;;;;;;;24.90;13.87;;;19.90;54.40;;;;;;5053493;23;20879;-76
2023/08/23 07:09:29;;;;;;;29.83;18.40;;;20.00;52.20;;;;;;5049328;28;20472;-73
2023/08/23 07:11:54;;;;;;;21.73;11.87;;;19.90;51.80;;;;;;5048300;28;20805;-73
2023/08/23 07:14:20;;;;;;;18.45;12.13;;;19.90;52.40;;;;;;5048896;28;20501;-73
2023/08/23 07:16:46;;;;;;;21.47;13.87;;;20.20;49.50;;;;;;5052535;28;20480;-74
2023/08/23 07:19:12;;;;;;;23.60;15.37;;;20.30;49.70;;;;;;5051229;28;20454;-72
2023/08/23 07:21:37;;;;;;;22.13;14.95;;;20.30;50.80;;;;;;5048371;28;20870;-73
2023/08/23 07:24:03;;;;;;;31.30;17.45;;;20.40;50.60;;;;;;5052406;28;20435;-73
2023/08/23 07:26:29;;;;;;;23.38;13.43;;;20.50;49.30;;;;;;5052841;28;20457;-73
2023/08/23 07:28:54;;;;;;;25.00;14.10;;;20.50;48.00;;;;;;5068281;28;20397;-73
2023/08/23 07:31:20;;;;;;;20.97;12.60;;;20.60;47.60;;;;;;5052575;28;20392;-74
2023/08/23 07:33:46;;;;;;;20.63;11.50;;;20.70;47.20;;;;;;5052494;28;20399;-72
2023/08/23 07:36:11;;;;;;;18.90;12.50;;;20.80;46.70;;;;;;5052694;28;20382;-72
2023/08/23 07:38:37;;;;;;;21.50;12.02;;;21.00;45.30;;;;;;5051851;28;20393;-73
2023/08/23 07:41:03;;;;;;;21.47;13.00;;;21.20;44.60;;;;;;5051964;28;20393;-71
2023/08/23 07:43:29;;;;;;;26.52;14.10;;;21.60;43.00;;;;;;5052134;28;20385;-73
2023/08/23 07:45:59;;;;;;;22.33;12.90;;;21.70;41.90;;;;;;5052001;28;20886;-72
2023/08/23 07:48:26;;;;;;;19.27;12.73;;;21.70;41.80;;;;;;5051874;28;20393;-72
2023/08/23 07:50:53;;;;;;;19.60;12.30;;;21.60;41.30;;;;;;5052158;28;20385;-74
2023/08/23 07:53:18;;;;;;;22.63;12.93;;;21.70;41.20;;;;;;5053373;28;20906;-74
2023/08/23 07:55:44;;;;;;;20.60;12.40;;;21.80;40.80;;;;;;5052667;28;20567;-74
2023/08/23 07:58:11;;;;;;;20.75;12.27;;;21.90;40.40;;;;;;5046761;28;20382;-76
2023/08/23 08:00:37;;;;;;;21.13;12.33;;;22.30;38.70;;;;;;5040327;28;20478;-74
2023/08/23 08:03:03;;;;;;;17.67;12.60;;;22.30;38.80;;;;;;5053654;28;20712;-74
2023/08/23 08:05:29;;;;;;;18.02;12.75;;;22.30;38.30;;;;;;5052647;28;20889;-74
2023/08/23 08:07:55;;;;;;;27.75;13.52;;;22.40;38.10;;;;;;5051402;28;20400;-75
2023/08/23 08:10:20;;;;;;;17.77;11.80;;;22.40;38.90;;;;;;5048559;28;20389;-73
2023/08/23 08:12:46;;;;;;;20.07;12.40;;;22.50;37.80;;;;;;5051782;28;20381;-73
2023/08/23 08:15:12;;;;;;;27.40;13.48;;;22.50;38.00;;;;;;5048862;28;20387;-73
2023/08/23 08:17:37;;;;;;;22.73;14.27;;;22.50;37.60;;;;;;5033684;28;20440;-73
2023/08/23 08:20:05;;;;;;;20.00;12.90;;;22.30;37.70;;;;;;5040148;28;20488;-73
2023/08/23 08:22:31;;;;;;;18.83;12.10;;;22.50;37.00;;;;;;5052779;28;20519;-72
2023/08/23 08:24:57;;;;;;;20.70;12.90;;;22.50;36.70;;;;;;5052891;28;20516;-72
2023/08/23 08:27:23;;;;;;;24.73;12.53;;;23.00;35.20;;;;;;5051020;28;20941;-73
2023/08/23 08:29:49;;;;;;;25.20;13.65;;;23.10;34.00;;;;;;5053011;28;20472;-72
2023/08/23 08:32:14;;;;;;;20.70;12.45;;;22.90;35.10;;;;;;5053335;28;20459;-72
2023/08/23 08:34:40;;;;;;;19.27;10.63;;;23.00;33.00;;;;;;5053079;28;20396;-73
2023/08/23 08:37:06;;;;;;;19.80;12.77;;;23.20;32.20;;;;;;5052979;28;20797;-73
2023/08/23 08:39:32;;;;;;;18.98;12.23;;;23.20;32.50;;;;;;5053134;28;20389;-74
2023/08/23 08:41:59;;;;;;;22.90;11.38;;;23.50;31.00;;;;;;5052792;28;20897;-75
2023/08/23 08:44:25;;;;;;;17.85;11.15;;;23.50;30.80;;;;;;5051688;28;20397;-74
2023/08/23 08:46:51;;;;;;;18.20;10.85;;;23.60;30.10;;;;;;5052677;28;20416;-75
2023/08/23 08:49:17;;;;;;;17.10;9.60;;;23.60;30.80;;;;;;5052687;28;20787;-74
2023/08/23 08:51:47;;;;;;;19.80;9.60;;;23.70;28.60;;;;;;5052591;28;20888;-73
2023/08/23 08:54:15;;;;;;;19.13;8.50;;;23.50;29.00;;;;;;5052876;28;20386;-73
2023/08/23 08:56:46;;;;;;;12.32;6.95;;;23.70;27.50;;;;;;5052546;28;20463;-73
2023/08/23 08:59:16;;;;;;;14.50;7.13;;;23.70;26.50;;;;;;5052623;28;20797;-72
2023/08/23 09:01:43;;;;;;;20.08;9.07;;;23.80;25.90;;;;;;5052131;28;20451;-72
2023/08/23 09:04:10;;;;;;;13.50;8.27;;;23.70;25.30;;;;;;5052609;28;20885;-72
2023/08/23 09:06:40;;;;;;;12.15;7.25;;;23.60;25.60;;;;;;5051671;28;20405;-74
2023/08/23 09:09:07;;;;;;;12.00;7.20;;;23.80;25.80;;;;;;5052786;28;20419;-72
2023/08/23 09:11:33;;;;;;;12.15;7.00;;;23.90;26.40;;;;;;5052711;28;20384;-74
2023/08/23 09:13:59;;;;;;;12.45;8.02;;;24.00;25.60;;;;;;5053103;28;20454;-72
2023/08/23 09:16:25;;;;;;;13.50;7.53;;;24.00;25.40;;;;;;5052246;28;20404;-72
2023/08/23 09:18:51;;;;;;;16.33;8.30;;;24.20;25.80;;;;;;5052717;28;20401;-74
2023/08/23 09:21:24;;;;;;;14.15;7.68;;;24.20;25.20;;;;;;5053066;28;20831;-73
2023/08/23 09:23:50;;;;;;;14.27;8.07;;;24.40;24.50;;;;;;5052401;28;20417;-74
2023/08/23 09:26:16;;;;;;;17.15;8.48;;;24.50;24.70;;;;;;5051943;28;20546;-72
2023/08/23 09:28:41;;;;;;;16.83;7.53;;;24.70;24.20;;;;;;5052196;28;20385;-72
2023/08/23 09:31:10;;;;;;;11.10;7.15;;;24.60;24.40;;;;;;5051999;28;20399;-74
2023/08/23 09:33:38;;;;;;;19.17;7.70;;;24.70;24.30;;;;;;5051811;28;20389;-73
2023/08/23 09:36:03;;;;;;;12.93;7.20;;;24.90;23.30;;;;;;5039261;28;20404;-74
2023/08/23 09:38:29;;;;;;;14.40;7.33;;;25.10;22.70;;;;;;5052254;28;20866;-81
2023/08/23 09:40:55;;;;;;;12.57;7.28;;;25.40;21.60;;;;;;5053359;28;20389;-76
2023/08/23 09:43:27;;;;;;;12.93;7.43;;;25.50;21.90;;;;;;5054788;28;20481;-77
2023/08/23 09:45:52;;;;;;;15.15;7.60;;;25.60;21.20;;;;;;5054417;28;20401;-76
2023/08/23 09:48:22;;;;;;;14.03;7.97;;;25.80;21.50;;;;;;5050398;28;20390;-74
2023/08/23 09:50:51;;;;;;;12.82;7.10;;;25.80;21.50;;;;;;5045813;28;20464;-76
2023/08/23 09:53:22;;;;;;;13.23;7.70;;;26.00;21.90;;;;;;5061631;28;20756;-72
2023/08/23 09:55:48;;;;;;;19.73;7.20;;;26.10;20.00;;;;;;5052668;28;20386;-72
2023/08/23 09:58:14;;;;;;;13.70;8.10;;;26.30;19.90;;;;;;5052242;28;20416;-74
2023/08/23 10:00:40;;;;;;;17.25;8.95;;;26.60;20.50;;;;;;5038252;28;20452;-74
2023/08/23 10:03:08;;;;;;;15.63;8.10;;;26.50;19.30;;;;;;5046889;28;20401;-73
2023/08/23 10:05:35;;;;;;;14.55;7.88;;;26.20;19.10;;;;;;5044687;28;20469;-75
2023/08/23 10:08:02;;;;;;;16.77;7.10;;;26.00;19.30;;;;;;5047446;28;20414;-75
2023/08/23 10:10:30;;;;;;;17.40;8.70;;;25.80;19.80;;;;;;5032399;28;20379;-75
2023/08/23 10:13:04;;;;;;;14.10;7.22;;;25.70;21.30;;;;;;5032130;28;20399;-73
2023/08/23 10:15:32;;;;;;;15.45;6.78;;;25.80;20.10;;;;;;5032583;28;20747;-75
2023/08/23 10:18:00;;;;;;;23.45;9.55;;;25.90;21.10;;;;;;5032607;28;20541;-72
2023/08/23 10:20:26;;;;;;;14.95;10.38;;;26.10;21.10;;;;;;5032289;28;20419;-74
2023/08/23 10:22:57;;;;;;;17.15;9.82;;;26.00;21.20;;;;;;5033196;28;20387;-73
2023/08/23 10:25:23;;;;;;;16.75;8.95;;;26.30;20.40;;;;;;5032893;28;20449;-74
2023/08/23 10:27:53;;;;;;;14.23;9.17;;;26.70;21.00;;;;;;5033054;28;20422;-73
2023/08/23 10:30:26;;;;;;;21.58;9.13;;;27.10;18.70;;;;;;5034784;28;20394;-74
2023/08/23 10:32:53;;;;;;;14.30;9.13;;;27.20;19.40;;;;;;5033680;28;20926;-73
2023/08/23 10:35:23;;;;;;;15.25;8.38;;;27.10;18.50;;;;;;5033988;28;20421;-73
2023/08/23 10:37:52;;;;;;;13.02;7.78;;;27.30;18.70;;;;;;5032236;28;20387;-73
2023/08/23 10:40:19;;;;;;;13.68;8.90;;;27.20;18.40;;;;;;5032119;28;20444;-74
2023/08/23 10:42:45;;;;;;;17.90;8.80;;;27.00;19.00;;;;;;5031564;28;20542;-76
2023/08/23 10:45:11;;;;;;;14.20;9.65;;;26.80;19.20;;;;;;5036949;28;20748;-73
2023/08/23 10:47:37;;;;;;;16.77;9.20;;;26.40;19.70;;;;;;5039884;28;20375;-76
2023/08/23 10:50:06;;;;;;;14.55;7.00;;;26.70;19.20;;;;;;5036154;28;20393;-74
2023/08/23 10:52:32;;;;;;;16.45;8.80;;;27.00;19.40;;;;;;5036999;28;20414;-73
2023/08/23 10:54:58;;;;;;;14.73;7.20;;;27.20;19.00;;;;;;5040241;28;20380;-73
2023/08/23 10:57:23;;;;;;;15.65;8.80;;;27.40;18.90;;;;;;5045456;28;20410;-74
2023/08/23 10:59:49;;;;;;;12.13;7.40;;;27.50;18.60;;;;;;5043014;28;20387;-76
2023/08/23 11:02:15;;;;;;;15.13;6.82;;;27.40;19.30;;;;;;5046665;28;20474;-74
2023/08/23 11:04:42;;;;;;;14.65;6.90;;;27.20;18.50;;;;;;5047593;28;20422;-74
2023/08/23 11:07:08;;;;;;;12.18;6.30;;;27.20;19.30;;;;;;5046727;28;20414;-73
2023/08/23 11:09:34;;;;;;;14.48;6.75;;;27.20;19.90;;;;;;5044718;28;20393;-74
2023/08/23 11:12:01;;;;;;;15.52;6.95;;;27.10;19.70;;;;;;5048234;28;20375;-76
2023/08/23 11:14:27;;;;;;;11.23;7.05;;;27.00;19.80;;;;;;5040461;28;20730;-74
2023/08/23 11:16:52;;;;;;;12.40;6.10;;;27.10;20.00;;;;;;5030850;28;20432;-74
2023/08/23 11:19:18;;;;;;;10.97;6.10;;;27.30;20.00;;;;;;5031413;28;20460;-74
2023/08/23 11:21:43;;;;;;;17.27;6.90;;;27.20;19.30;;;;;;5030452;28;20751;-76
2023/08/23 11:24:09;;;;;;;11.35;6.72;;;27.30;18.70;;;;;;5033008;28;20957;-75
2023/08/23 11:26:35;;;;;;;11.47;6.30;;;27.10;18.60;;;;;;5032829;28;20486;-75
2023/08/23 11:29:02;;;;;;;10.65;5.32;;;26.80;19.00;;;;;;5032256;28;20383;-74
2023/08/23 11:31:29;;;;;;;9.23;5.03;;;26.80;19.70;;;;;;5043277;28;20413;-76
2023/08/23 11:33:59;;;;;;;9.10;4.60;;;27.00;19.30;;;;;;5046771;28;20387;-75
2023/08/23 11:36:26;;;;;;;7.33;4.07;;;27.10;17.70;;;;;;5049191;28;20382;-75
2023/08/23 11:38:53;;;;;;;7.63;4.10;;;26.80;16.70;;;;;;5049326;28;20387;-75
2023/08/23 11:41:28;;;;;;;10.10;3.70;;;26.60;17.20;;;;;;5037487;28;20414;-74
2023/08/23 11:43:54;;;;;;;7.60;4.30;;;26.80;17.90;;;;;;5031570;28;20846;-73
2023/08/23 11:46:20;;;;;;;11.50;4.50;;;26.80;17.30;;;;;;5049387;28;20407;-74
2023/08/23 11:48:45;;;;;;;12.55;5.00;;;26.70;17.30;;;;;;5045997;28;20394;-74
2023/08/23 11:51:11;;;;;;;10.50;5.00;;;26.50;18.10;;;;;;5049153;28;20394;-75
2023/08/23 11:53:36;;;;;;;8.32;4.13;;;26.50;18.50;;;;;;5049458;28;20397;-76
2023/08/23 11:56:07;;;;;;;11.73;4.20;;;26.70;16.40;;;;;;5045994;28;20399;-74
2023/08/23 11:58:33;;;;;;;9.27;4.70;;;26.70;16.50;;;;;;5040742;28;20391;-74
2023/08/23 12:00:59;;;;;;;5.80;4.37;;;26.80;16.70;;;;;;5031182;28;20817;-74
2023/08/23 12:03:24;;;;;;;11.82;4.60;;;26.80;17.70;;;;;;5034033;28;20477;-74
2023/08/23 12:05:50;;;;;;;13.50;4.27;;;26.70;17.20;;;;;;5033407;28;20414;-73
2023/08/23 12:08:15;;;;;;;11.03;4.70;;;26.70;18.10;;;;;;5033816;28;20389;-73
2023/08/23 12:10:41;;;;;;;9.40;4.63;;;26.90;16.70;;;;;;5033795;28;20405;-75
2023/08/23 12:13:06;;;;;;;11.17;4.50;;;26.90;16.20;;;;;;5036899;28;20386;-74
2023/08/23 12:15:32;;;;;;;12.48;4.40;;;26.80;17.10;;;;;;5034076;28;20393;-75
2023/08/23 12:17:58;;;;;;;14.63;4.97;;;26.90;17.20;;;;;;5033983;28;20402;-75
2023/08/23 12:20:23;;;;;;;11.65;5.10;;;26.90;17.50;;;;;;5034339;28;20481;-74
2023/08/23 12:22:50;;;;;;;10.00;4.53;;;26.70;17.30;;;;;;5033669;28;20387;-74
2023/08/23 12:25:16;;;;;;;8.02;4.70;;;26.80;18.30;;;;;;5034692;28;20414;-73
2023/08/23 12:27:42;;;;;;;10.50;4.35;;;27.10;17.90;;;;;;5034149;28;20423;-75
2023/08/23 12:30:11;;;;;;;10.27;4.07;;;27.30;17.00;;;;;;5034110;28;20480;-73
2023/08/23 12:32:37;;;;;;;10.15;4.32;;;27.40;16.50;;;;;;5033762;28;20744;-72
2023/08/23 12:35:06;;;;;;;7.37;3.70;;;27.40;16.50;;;;;;5033503;28;20390;-73